createdAt,value
2022-11-06T00:01:18.969Z,54.70
2022-11-06T00:04:02.123Z,60.47
2022-11-06T00:06:50.077Z,49.10
2022-11-06T00:09:33.131Z,57.47
2022-11-06T00:12:16.213Z,52.13
2022-11-06T00:14:59.259Z,57.33
2022-11-06T00:17:43.694Z,53.73
2022-11-06T00:20:26.841Z,56.60
2022-11-06T00:23:09.896Z,52.30
2022-11-06T00:25:56.636Z,57.33
2022-11-06T00:28:40.267Z,54.60
2022-11-06T00:31:25.416Z,54.83
2022-11-06T00:34:11.549Z,58.80
2022-11-06T00:36:54.509Z,57.50
2022-11-06T00:39:37.560Z,54.10
2022-11-06T00:42:20.563Z,63.23
2022-11-06T00:45:03.666Z,59.13
2022-11-06T00:47:46.669Z,61.60
2022-11-06T00:50:31.078Z,55.07
2022-11-06T00:53:14.070Z,63.93
2022-11-06T00:55:57.134Z,57.00
2022-11-06T00:58:40.925Z,59.97
2022-11-06T01:01:25.611Z,57.80
2022-11-06T01:04:12.518Z,64.97
2022-11-06T01:06:57.928Z,56.53
2022-11-06T01:09:40.967Z,63.90
2022-11-06T01:12:23.998Z,67.57
2022-11-06T01:15:08.070Z,59.90
2022-11-06T01:17:51.098Z,46.37
2022-11-06T01:20:34.071Z,51.67
2022-11-06T01:23:18.564Z,41.67
2022-11-06T01:26:03.133Z,41.20
2022-11-06T01:28:46.282Z,39.17
2022-11-06T01:31:31.937Z,37.63
2022-11-06T01:34:15.119Z,39.57
2022-11-06T01:36:58.189Z,35.23
2022-11-06T01:39:42.698Z,31.10
2022-11-06T01:42:25.701Z,37.03
2022-11-06T01:45:34.621Z,39.90
2022-11-06T01:48:19.566Z,35.47
2022-11-06T01:51:02.718Z,30.60
2022-11-06T01:53:45.864Z,33.00
2022-11-06T01:56:30.423Z,31.43
2022-11-06T01:59:16.681Z,27.13
2022-11-06T02:01:59.838Z,29.67
2022-11-06T02:04:45.209Z,27.97
2022-11-06T02:07:28.332Z,28.40
2022-11-06T02:10:11.813Z,31.80
2022-11-06T02:13:07.867Z,33.33
2022-11-06T02:15:56.651Z,28.47
2022-11-06T02:18:50.613Z,32.73
2022-11-06T02:21:55.806Z,46.47
2022-11-06T02:25:06.173Z,32.37
2022-11-06T02:27:57.653Z,36.73
2022-11-06T02:30:45.999Z,34.03
2022-11-06T02:33:34.711Z,30.67
2022-11-06T02:36:23.070Z,31.17
2022-11-06T02:39:11.322Z,32.03
2022-11-06T02:41:56.582Z,30.90
2022-11-06T02:44:43.342Z,34.53
2022-11-06T02:47:30.499Z,34.93
2022-11-06T02:50:17.311Z,28.70
2022-11-06T02:53:03.522Z,24.97
2022-11-06T02:55:50.040Z,29.30
2022-11-06T02:58:39.495Z,30.90
2022-11-06T03:01:29.187Z,30.30
2022-11-06T03:04:16.655Z,31.20
2022-11-06T03:07:04.950Z,27.50
2022-11-06T03:09:49.543Z,33.57
2022-11-06T03:12:38.812Z,28.77
2022-11-06T03:15:28.432Z,28.63
2022-11-06T03:18:16.741Z,27.47
2022-11-06T03:21:05.213Z,27.60
2022-11-06T03:23:53.826Z,28.83
2022-11-06T03:26:39.630Z,24.13
2022-11-06T03:29:31.405Z,27.37
2022-11-06T03:32:19.023Z,23.70
2022-11-06T03:35:09.467Z,32.87
2022-11-06T03:38:00.117Z,27.47
2022-11-06T03:40:48.212Z,28.10
2022-11-06T03:43:35.615Z,30.87
2022-11-06T03:46:25.064Z,30.30
2022-11-06T03:49:11.419Z,31.80
2022-11-06T03:52:00.789Z,30.23
2022-11-06T03:54:48.137Z,27.30
2022-11-06T03:57:38.432Z,28.10
2022-11-06T04:00:21.983Z,28.40
2022-11-06T04:03:11.395Z,31.87
2022-11-06T04:05:57.855Z,25.27
2022-11-06T04:08:59.854Z,34.07
2022-11-06T04:12:01.879Z,25.60
2022-11-06T04:14:50.191Z,29.70
2022-11-06T04:17:34.256Z,33.23
2022-11-06T04:20:35.740Z,36.07
2022-11-06T04:23:26.411Z,29.40
2022-11-06T04:26:34.082Z,28.17
2022-11-06T04:29:32.323Z,30.60
2022-11-06T04:32:21.661Z,27.30
2022-11-06T04:35:09.010Z,27.60
2022-11-06T04:37:59.029Z,26.03
2022-11-06T04:40:49.845Z,28.27
2022-11-06T04:43:42.267Z,33.97
2022-11-06T04:46:29.356Z,31.43
2022-11-06T04:49:14.035Z,24.17
2022-11-06T04:51:59.034Z,30.93
2022-11-06T04:54:42.283Z,28.50
2022-11-06T04:57:26.016Z,37.80
2022-11-06T05:00:14.483Z,34.60
2022-11-06T05:02:57.551Z,33.63
2022-11-06T05:05:40.615Z,28.87
2022-11-06T05:08:23.653Z,26.67
2022-11-06T05:11:06.840Z,35.57
2022-11-06T05:13:49.858Z,25.97
2022-11-06T05:16:34.317Z,27.97
2022-11-06T05:19:17.273Z,29.80
2022-11-06T05:22:17.611Z,29.87
2022-11-06T05:25:00.624Z,37.80
2022-11-06T05:27:43.668Z,29.63
2022-11-06T05:30:27.300Z,31.53
2022-11-06T05:33:11.656Z,35.20
2022-11-06T05:35:54.609Z,34.07
2022-11-06T05:38:37.762Z,42.83
2022-11-06T05:41:20.813Z,35.40
2022-11-06T05:44:03.916Z,35.50
2022-11-06T05:46:49.349Z,33.50
2022-11-06T05:49:34.187Z,35.70
2022-11-06T05:52:17.214Z,41.17
2022-11-06T05:55:00.213Z,36.43
2022-11-06T05:57:43.230Z,34.53
2022-11-06T06:00:26.753Z,36.70
2022-11-06T06:03:11.027Z,27.13
2022-11-06T06:05:55.469Z,40.83
2022-11-06T06:08:38.550Z,29.70
2022-11-06T06:11:21.610Z,38.60
2022-11-06T06:14:04.676Z,40.23
2022-11-06T06:16:47.866Z,31.27
2022-11-06T06:19:30.875Z,34.93
2022-11-06T06:22:15.615Z,26.17
2022-11-06T06:24:58.726Z,36.30
2022-11-06T06:27:41.757Z,33.00
2022-11-06T06:30:25.499Z,31.70
2022-11-06T06:33:08.576Z,32.93
2022-11-06T06:35:51.556Z,37.07
2022-11-06T06:38:35.967Z,34.17
2022-11-06T06:41:19.004Z,39.20
2022-11-06T06:44:02.227Z,30.00
2022-11-06T06:46:45.210Z,26.97
2022-11-06T06:49:28.425Z,65.77
2022-11-06T06:52:11.776Z,69.37
2022-11-06T06:54:56.207Z,34.40
2022-11-06T06:57:39.192Z,33.20
2022-11-06T07:00:22.276Z,30.87
2022-11-06T07:03:05.312Z,36.07
2022-11-06T07:05:48.387Z,32.80
2022-11-06T07:08:31.586Z,33.57
2022-11-06T07:11:17.116Z,36.07
2022-11-06T07:14:01.048Z,38.07
2022-11-06T07:16:44.048Z,39.77
2022-11-06T07:19:27.077Z,30.80
2022-11-06T07:22:10.089Z,34.73
2022-11-06T07:24:53.110Z,37.47
2022-11-06T07:27:37.530Z,41.97
2022-11-06T07:30:20.544Z,37.83
2022-11-06T07:33:04.437Z,31.87
2022-11-06T07:35:47.416Z,34.67
2022-11-06T07:38:30.384Z,40.20
2022-11-06T07:41:14.632Z,34.73
2022-11-06T07:43:59.106Z,56.97
2022-11-06T07:46:42.089Z,37.07
2022-11-06T07:49:25.193Z,48.10
2022-11-06T07:52:08.188Z,37.50
2022-11-06T07:54:51.220Z,44.30
2022-11-06T07:57:37.481Z,61.40
2022-11-06T08:00:22.233Z,206.73
2022-11-06T08:03:05.348Z,128.83
2022-11-06T08:05:48.906Z,57.90
2022-11-06T08:08:32.604Z,51.40
2022-11-06T08:11:16.139Z,36.63
2022-11-06T08:14:01.190Z,40.10
2022-11-06T08:16:45.633Z,43.63
2022-11-06T08:19:28.661Z,43.93
2022-11-06T08:22:12.001Z,44.47
2022-11-06T08:24:55.017Z,38.60
2022-11-06T08:27:37.968Z,43.33
2022-11-06T08:30:21.141Z,41.90
2022-11-06T08:33:08.266Z,41.53
2022-11-06T08:35:51.428Z,39.67
2022-11-06T08:38:34.451Z,38.87
2022-11-06T08:41:17.717Z,43.57
2022-11-06T08:44:00.775Z,32.30
2022-11-06T08:46:49.265Z,30.50
2022-11-06T08:49:36.079Z,34.87
2022-11-06T08:52:19.197Z,38.10
2022-11-06T08:55:02.316Z,34.53
2022-11-06T08:57:45.288Z,32.20
2022-11-06T09:00:29.377Z,31.67
2022-11-06T09:03:14.708Z,30.83
2022-11-06T09:05:59.395Z,31.73
2022-11-06T09:08:42.428Z,30.80
2022-11-06T09:11:25.459Z,33.20
2022-11-06T09:14:08.541Z,34.70
2022-11-06T09:16:51.543Z,30.23
2022-11-06T09:19:34.575Z,33.43
2022-11-06T09:22:19.763Z,35.53
2022-11-06T09:25:04.419Z,34.37
2022-11-06T09:27:52.012Z,31.27
2022-11-06T09:30:37.509Z,29.57
2022-11-06T09:33:20.980Z,28.47
2022-11-06T09:36:05.413Z,31.63
2022-11-06T09:38:49.999Z,31.17
2022-11-06T09:41:43.577Z,26.33
2022-11-06T09:44:43.449Z,28.20
2022-11-06T09:47:31.576Z,26.30
2022-11-06T09:50:20.572Z,28.53
2022-11-06T09:53:09.534Z,27.00
2022-11-06T09:55:55.617Z,21.53
2022-11-06T09:58:41.999Z,20.37
2022-11-06T10:01:35.644Z,28.13
2022-11-06T10:04:29.536Z,22.33
2022-11-06T10:07:25.696Z,20.63
2022-11-06T10:10:15.260Z,17.47
2022-11-06T10:13:17.853Z,18.70
2022-11-06T10:16:07.307Z,17.13
2022-11-06T10:18:57.397Z,17.07
2022-11-06T10:21:49.556Z,16.03
2022-11-06T10:24:45.482Z,15.97
2022-11-06T10:27:34.312Z,15.47
2022-11-06T10:30:20.680Z,15.37
2022-11-06T10:33:24.015Z,15.43
2022-11-06T10:36:11.039Z,13.00
2022-11-06T10:38:56.052Z,14.37
2022-11-06T10:41:39.358Z,13.07
2022-11-06T10:44:26.444Z,12.77
2022-11-06T10:47:19.320Z,14.60
2022-11-06T10:50:03.990Z,16.63
2022-11-06T10:52:56.223Z,12.13
2022-11-06T10:55:54.785Z,15.60
2022-11-06T10:58:37.918Z,14.97
2022-11-06T11:01:21.070Z,16.13
2022-11-06T11:04:05.863Z,14.17
2022-11-06T11:06:48.845Z,14.07
2022-11-06T11:09:34.233Z,17.40
2022-11-06T11:12:24.283Z,19.23
2022-11-06T11:15:17.198Z,14.53
2022-11-06T11:18:18.545Z,15.83
2022-11-06T11:21:17.385Z,13.90
2022-11-06T11:24:08.986Z,16.40
2022-11-06T11:26:55.374Z,13.73
2022-11-06T11:29:46.093Z,14.43
2022-11-06T11:32:31.528Z,14.43
2022-11-06T11:35:20.923Z,15.37
2022-11-06T11:38:14.715Z,21.67
2022-11-06T11:41:08.304Z,20.17
2022-11-06T11:43:59.108Z,20.70
2022-11-06T11:46:48.379Z,22.07
2022-11-06T11:49:32.895Z,28.87
2022-11-06T11:52:21.000Z,30.50
2022-11-06T11:55:06.205Z,31.97
2022-11-06T11:57:52.791Z,26.93
2022-11-06T12:00:55.123Z,25.80
2022-11-06T12:03:43.341Z,24.17
2022-11-06T12:06:26.416Z,28.77
2022-11-06T12:09:14.217Z,21.63
2022-11-06T12:12:01.270Z,19.63
2022-11-06T12:14:44.674Z,20.80
2022-11-06T12:17:27.756Z,22.23
2022-11-06T12:20:15.283Z,17.37
2022-11-06T12:23:01.234Z,20.10
2022-11-06T12:25:50.089Z,18.03
2022-11-06T12:28:38.868Z,16.93
2022-11-06T12:31:38.701Z,19.97
2022-11-06T12:34:29.203Z,20.23
2022-11-06T12:37:21.395Z,16.30
2022-11-06T12:40:18.385Z,22.60
2022-11-06T12:43:15.672Z,20.63
2022-11-06T12:46:11.102Z,20.60
2022-11-06T12:49:12.326Z,21.43
2022-11-06T12:52:06.683Z,20.73
2022-11-06T12:55:01.907Z,17.20
2022-11-06T12:58:00.248Z,20.70
2022-11-06T13:00:53.870Z,26.50
2022-11-06T13:03:53.217Z,16.30
2022-11-06T13:07:15.773Z,18.57
2022-11-06T13:10:10.548Z,21.03
2022-11-06T13:13:12.740Z,22.47
2022-11-06T13:16:04.732Z,17.70
2022-11-06T13:18:54.688Z,18.50
2022-11-06T13:21:54.030Z,18.03
2022-11-06T13:24:42.294Z,16.97
2022-11-06T13:27:33.016Z,15.90
2022-11-06T13:30:19.429Z,17.40
2022-11-06T13:33:08.608Z,17.63
2022-11-06T13:35:53.683Z,22.80
2022-11-06T13:38:39.660Z,14.33
2022-11-06T13:41:25.320Z,16.20
2022-11-06T13:44:16.044Z,14.83
2022-11-06T13:47:05.981Z,49.10
2022-11-06T13:49:59.842Z,14.10
2022-11-06T13:52:54.937Z,17.37
2022-11-06T13:55:53.477Z,13.83
2022-11-06T13:59:00.013Z,14.17
2022-11-06T14:01:56.392Z,13.20
2022-11-06T14:04:58.317Z,33.37
2022-11-06T14:07:43.551Z,12.73
2022-11-06T14:10:35.484Z,14.50
2022-11-06T14:13:24.034Z,14.43
2022-11-06T14:16:26.237Z,14.60
2022-11-06T14:19:14.913Z,21.03
2022-11-06T14:22:18.678Z,22.93
2022-11-06T14:25:02.575Z,18.63
2022-11-06T14:28:07.444Z,13.70
2022-11-06T14:31:11.511Z,18.20
2022-11-06T14:34:03.677Z,13.70
2022-11-06T14:36:46.705Z,13.27
2022-11-06T14:40:02.856Z,12.07
2022-11-06T14:42:48.769Z,14.57
2022-11-06T14:45:33.813Z,14.73
2022-11-06T14:48:28.226Z,12.23
2022-11-06T14:51:13.559Z,19.57
2022-11-06T14:54:00.321Z,13.50
2022-11-06T14:56:43.458Z,27.93
2022-11-06T14:59:34.482Z,19.57
2022-11-06T15:02:25.441Z,40.53
2022-11-06T15:05:15.776Z,17.83
2022-11-06T15:08:07.045Z,20.40
2022-11-06T15:10:59.025Z,15.13
2022-11-06T15:13:42.092Z,15.77
2022-11-06T15:16:28.611Z,18.13
2022-11-06T15:19:17.275Z,16.90
2022-11-06T15:22:08.082Z,20.17
2022-11-06T15:25:01.250Z,27.27
2022-11-06T15:27:47.805Z,25.67
2022-11-06T15:30:32.425Z,26.67
2022-11-06T15:33:20.640Z,33.07
2022-11-06T15:36:08.019Z,27.77
2022-11-06T15:38:51.089Z,26.90
2022-11-06T15:41:34.167Z,25.40
2022-11-06T15:44:24.368Z,27.77
2022-11-06T15:47:07.770Z,29.73
2022-11-06T15:50:06.592Z,30.27
2022-11-06T15:52:51.820Z,34.37
2022-11-06T15:55:38.229Z,30.70
2022-11-06T15:58:31.139Z,31.23
2022-11-06T16:01:14.712Z,35.80
2022-11-06T16:03:58.776Z,30.07
2022-11-06T16:06:43.201Z,39.07
2022-11-06T16:09:28.753Z,34.50
2022-11-06T16:12:14.005Z,39.23
2022-11-06T16:14:57.056Z,35.97
2022-11-06T16:17:45.271Z,35.87
2022-11-06T16:20:29.458Z,43.23
2022-11-06T16:23:19.452Z,36.13
2022-11-06T16:26:06.540Z,36.13
2022-11-06T16:28:51.559Z,44.60
2022-11-06T16:31:35.943Z,37.57
2022-11-06T16:34:33.993Z,33.70
2022-11-06T16:37:44.154Z,34.37
2022-11-06T16:40:50.573Z,34.23
2022-11-06T16:43:35.229Z,45.27
2022-11-06T16:46:18.666Z,38.97
2022-11-06T16:49:34.864Z,31.10
2022-11-06T16:52:21.098Z,36.37
2022-11-06T16:55:08.718Z,36.17
2022-11-06T16:57:56.115Z,41.23
2022-11-06T17:00:40.730Z,44.27
2022-11-06T17:03:24.574Z,40.23
2022-11-06T17:06:11.366Z,42.90
2022-11-06T17:09:10.196Z,36.50
2022-11-06T17:11:56.015Z,44.90
2022-11-06T17:14:43.377Z,39.13
2022-11-06T17:17:34.336Z,38.50
2022-11-06T17:20:20.727Z,44.07
2022-11-06T17:23:03.761Z,43.60
2022-11-06T17:25:47.885Z,37.90
2022-11-06T17:28:31.088Z,42.07
2022-11-06T17:31:15.410Z,42.77
2022-11-06T17:33:59.787Z,79.37
2022-11-06T17:36:42.813Z,43.83
2022-11-06T17:39:25.924Z,37.70
2022-11-06T17:42:08.999Z,47.57
2022-11-06T17:44:52.156Z,45.10
2022-11-06T17:47:35.694Z,52.43
2022-11-06T17:50:20.246Z,51.97
2022-11-06T17:53:03.296Z,44.73
2022-11-06T17:55:46.329Z,44.77
2022-11-06T17:58:29.354Z,54.43
2022-11-06T18:01:12.545Z,49.37
2022-11-06T18:03:55.708Z,40.10
2022-11-06T18:06:40.671Z,39.43
2022-11-06T18:09:24.461Z,42.63
2022-11-06T18:12:09.488Z,38.93
2022-11-06T18:14:52.826Z,33.67
2022-11-06T18:17:35.942Z,30.97
2022-11-06T18:20:19.162Z,41.20
2022-11-06T18:23:03.581Z,69.37
2022-11-06T18:25:54.786Z,47.37
2022-11-06T18:28:37.966Z,34.27
2022-11-06T18:31:21.907Z,47.40
2022-11-06T18:34:05.747Z,41.27
2022-11-06T18:36:49.097Z,38.70
2022-11-06T18:39:33.493Z,45.90
2022-11-06T18:42:16.503Z,47.87
2022-11-06T18:44:59.553Z,54.37
2022-11-06T18:47:42.536Z,55.27
2022-11-06T18:50:26.061Z,137.40
2022-11-06T18:53:09.538Z,80.23
2022-11-06T18:55:53.923Z,71.83
2022-11-06T18:58:37.991Z,63.23
2022-11-06T19:01:23.137Z,67.10
2022-11-06T19:04:06.802Z,48.17
2022-11-06T19:06:50.922Z,49.33
2022-11-06T19:09:34.023Z,45.87
2022-11-06T19:12:19.916Z,54.17
2022-11-06T19:15:03.279Z,60.80
2022-11-06T19:17:46.714Z,120.93
2022-11-06T19:20:29.859Z,87.37
2022-11-06T19:23:16.017Z,68.10
2022-11-06T19:26:17.412Z,66.13
2022-11-06T19:29:05.581Z,71.50
2022-11-06T19:31:48.729Z,69.37
2022-11-06T19:34:36.570Z,60.73
2022-11-06T19:37:22.039Z,67.17
2022-11-06T19:40:06.470Z,66.73
2022-11-06T19:42:49.642Z,76.97
2022-11-06T19:45:34.956Z,75.53
2022-11-06T19:48:17.978Z,67.97
2022-11-06T19:51:01.394Z,83.57
2022-11-06T19:53:44.924Z,58.60
2022-11-06T19:56:28.528Z,62.03
2022-11-06T19:59:12.252Z,69.90
2022-11-06T20:01:56.949Z,56.83
2022-11-06T20:04:40.470Z,59.30
2022-11-06T20:07:26.557Z,59.63
2022-11-06T20:10:10.436Z,62.83
2022-11-06T20:12:54.119Z,55.60
2022-11-06T20:15:37.596Z,57.77
2022-11-06T20:18:22.050Z,54.70
2022-11-06T20:21:07.259Z,51.40
2022-11-06T20:23:50.820Z,56.97
2022-11-06T20:26:33.870Z,59.00
2022-11-06T20:29:17.191Z,53.10
2022-11-06T20:32:00.209Z,47.03
2022-11-06T20:34:44.786Z,52.17
2022-11-06T20:37:27.976Z,51.80
2022-11-06T20:40:12.487Z,52.10
2022-11-06T20:42:55.719Z,49.53
2022-11-06T20:45:39.065Z,53.43
2022-11-06T20:48:22.655Z,52.00
2022-11-06T20:51:08.830Z,59.33
2022-11-06T20:53:52.550Z,65.33
2022-11-06T20:56:35.567Z,62.73
2022-11-06T20:59:18.819Z,65.70
2022-11-06T21:02:02.026Z,71.37
2022-11-06T21:04:46.062Z,65.13
2022-11-06T21:07:30.509Z,63.03
2022-11-06T21:10:13.530Z,60.57
2022-11-06T21:12:57.686Z,57.27
2022-11-06T21:15:40.739Z,55.57
2022-11-06T21:18:23.827Z,50.27
2022-11-06T21:21:08.678Z,54.20
2022-11-06T21:23:54.499Z,40.83
2022-11-06T21:26:39.218Z,39.23
2022-11-06T21:29:23.519Z,43.63
2022-11-06T21:32:06.811Z,43.87
2022-11-06T21:34:50.151Z,41.10
2022-11-06T21:37:33.923Z,44.77
2022-11-06T21:40:18.532Z,39.93
2022-11-06T21:43:02.118Z,45.03
2022-11-06T21:45:45.114Z,39.33
2022-11-06T21:48:45.190Z,49.70
2022-11-06T21:51:31.755Z,49.03
2022-11-06T21:54:32.248Z,44.30
2022-11-06T21:57:16.639Z,46.00
2022-11-06T21:59:59.880Z,42.13
2022-11-06T22:02:43.052Z,51.27
2022-11-06T22:05:26.172Z,50.10
2022-11-06T22:08:09.570Z,52.13
2022-11-06T22:10:52.603Z,51.83
2022-11-06T22:13:37.050Z,55.57
2022-11-06T22:16:22.891Z,53.00
2022-11-06T22:19:07.868Z,49.27
2022-11-06T22:21:50.886Z,56.40
2022-11-06T22:24:33.890Z,49.00
2022-11-06T22:27:16.875Z,48.37
2022-11-06T22:30:01.289Z,50.17
2022-11-06T22:32:44.317Z,52.10
2022-11-06T22:35:27.429Z,48.20
2022-11-06T22:38:11.433Z,55.97
2022-11-06T22:40:54.966Z,50.77
2022-11-06T22:43:38.037Z,50.23
2022-11-06T22:46:23.890Z,49.50
2022-11-06T22:49:07.263Z,49.97
2022-11-06T22:51:50.305Z,52.53
2022-11-06T22:54:33.368Z,57.37
2022-11-06T22:57:16.329Z,54.87
2022-11-06T22:59:59.290Z,60.17
2022-11-06T23:02:43.866Z,54.67
2022-11-06T23:05:26.929Z,55.67
2022-11-06T23:08:09.890Z,55.63
2022-11-06T23:10:53.418Z,56.50
2022-11-06T23:13:36.981Z,54.73
2022-11-06T23:16:42.675Z,57.33
2022-11-06T23:19:28.871Z,54.53
2022-11-06T23:22:29.129Z,52.80
2022-11-06T23:25:13.352Z,50.30
2022-11-06T23:27:56.988Z,55.60
2022-11-06T23:30:40.036Z,50.57
2022-11-06T23:33:23.010Z,60.43
2022-11-06T23:36:09.027Z,65.23
2022-11-06T23:38:54.259Z,54.83
2022-11-06T23:41:46.986Z,57.90
2022-11-06T23:44:47.566Z,52.00
2022-11-06T23:47:30.634Z,57.13
2022-11-06T23:50:13.641Z,56.73
2022-11-06T23:52:58.042Z,53.87
2022-11-06T23:55:41.113Z,62.10
2022-11-06T23:58:24.146Z,58.70
